Time;durP1;ratioP1;P1;durP2;ratioP2;P2;SDS_P1;SDS_P2;PMS_P1;PMS_P2;Temp;Humidity;BMP_temperature;BMP_pressure;BME280_temperature;BME280_humidity;BME280_pressure;Samples;Min_cycle;Max_cycle;Signal;HPM_P1;HPM_P2
2022/04/04 00:00:43;;;;;;;15.17;9.20;;;1.00;98.20;;;;;;4923295;29;20100;-81
2022/04/04 00:03:09;;;;;;;16.63;9.93;;;1.10;98.10;;;;;;4927382;29;20099;-81
2022/04/04 00:05:36;;;;;;;12.63;8.70;;;1.20;97.60;;;;;;4927318;29;20120;-81
2022/04/04 00:08:01;;;;;;;16.00;8.97;;;1.20;97.80;;;;;;4924325;29;20491;-80
2022/04/04 00:10:27;;;;;;;9.37;7.53;;;1.40;98.30;;;;;;4927842;29;20032;-80
2022/04/04 00:12:53;;;;;;;13.13;8.07;;;1.30;97.80;;;;;;4927593;29;20024;-80
2022/04/04 00:15:19;;;;;;;14.67;9.70;;;1.50;97.70;;;;;;4907003;29;20485;-81
2022/04/04 00:17:45;;;;;;;16.37;8.40;;;1.60;97.40;;;;;;4927930;29;20024;-81
2022/04/04 00:20:11;;;;;;;15.37;9.20;;;1.70;97.60;;;;;;4948810;23;20032;-80
2022/04/04 00:22:37;;;;;;;13.67;8.83;;;1.80;97.10;;;;;;4917861;29;20035;-79
2022/04/04 00:25:04;;;;;;;11.57;8.77;;;1.90;96.90;;;;;;4935023;29;20643;-80
2022/04/04 00:27:30;;;;;;;14.33;7.93;;;2.10;95.90;;;;;;4918496;29;20489;-80
2022/04/04 00:29:55;;;;;;;15.70;9.07;;;2.30;95.00;;;;;;4935261;29;20082;-80
2022/04/04 00:32:21;;;;;;;12.50;8.57;;;2.40;94.40;;;;;;4906652;29;20035;-80
2022/04/04 00:34:47;;;;;;;15.33;8.73;;;2.50;94.30;;;;;;4925544;29;20040;-80
2022/04/04 00:37:13;;;;;;;19.33;9.13;;;2.60;93.80;;;;;;4928183;29;20408;-80
2022/04/04 00:39:39;;;;;;;14.57;9.53;;;2.70;93.70;;;;;;4927985;29;20122;-80
2022/04/04 00:42:06;;;;;;;12.53;8.17;;;2.70;94.00;;;;;;4925879;29;20043;-80
2022/04/04 00:44:32;;;;;;;12.23;8.40;;;2.70;94.00;;;;;;4923380;29;20032;-80
2022/04/04 00:46:58;;;;;;;13.43;8.23;;;2.70;94.20;;;;;;4928128;29;20019;-80
2022/04/04 00:49:24;;;;;;;12.47;8.73;;;2.70;94.10;;;;;;4925503;29;20981;-80
2022/04/04 00:51:50;;;;;;;16.73;8.83;;;2.60;94.50;;;;;;4912816;29;20043;-80
2022/04/04 00:54:16;;;;;;;14.43;8.53;;;2.80;94.50;;;;;;4923527;29;20099;-80
2022/04/04 00:56:43;;;;;;;14.03;9.17;;;2.80;94.90;;;;;;4908872;29;20036;-80
2022/04/04 00:59:13;;;;;;;16.23;9.20;;;2.90;95.20;;;;;;4927035;29;20056;-79
2022/04/04 01:01:40;;;;;;;16.80;9.03;;;2.90;94.50;;;;;;4922467;29;20110;-80
2022/04/04 01:04:08;;;;;;;14.50;9.07;;;3.00;94.40;;;;;;4926906;29;20019;-80
2022/04/04 01:06:35;;;;;;;14.20;10.13;;;3.20;94.10;;;;;;4925336;29;20023;-80
2022/04/04 01:09:03;;;;;;;15.90;8.87;;;3.20;94.20;;;;;;4922941;29;20024;-80
2022/04/04 01:11:29;;;;;;;13.77;9.60;;;3.20;94.30;;;;;;4922856;29;20091;-80
2022/04/04 01:13:55;;;;;;;16.87;9.43;;;3.20;94.20;;;;;;4925153;29;20035;-81
2022/04/04 01:16:21;;;;;;;14.47;10.00;;;3.30;94.10;;;;;;4926997;29;20064;-81
2022/04/04 01:18:47;;;;;;;14.07;9.17;;;3.50;94.00;;;;;;4922659;29;20024;-81
2022/04/04 01:21:17;;;;;;;15.87;8.57;;;3.60;93.40;;;;;;4953384;23;20110;-81
2022/04/04 01:23:43;;;;;;;15.77;9.17;;;3.80;92.90;;;;;;4934421;29;20054;-81
2022/04/04 01:26:11;;;;;;;14.50;7.93;;;4.00;92.60;;;;;;4934355;29;20469;-80
2022/04/04 01:28:39;;;;;;;11.77;8.43;;;4.00;92.30;;;;;;4934316;29;20195;-81
2022/04/04 01:31:05;;;;;;;16.00;9.27;;;4.20;91.80;;;;;;4926251;29;20032;-81
2022/04/04 01:33:31;;;;;;;13.87;8.73;;;4.20;91.80;;;;;;4927214;29;20028;-81
2022/04/04 01:35:58;;;;;;;13.17;8.70;;;4.20;91.80;;;;;;4923050;29;20080;-81
2022/04/04 01:38:24;;;;;;;12.87;8.57;;;4.20;92.00;;;;;;4924314;29;20107;-81
2022/04/04 01:40:51;;;;;;;12.77;8.07;;;4.20;91.70;;;;;;4927327;29;20038;-81
2022/04/04 01:43:17;;;;;;;12.13;7.80;;;4.30;91.10;;;;;;4922811;29;20635;-81
2022/04/04 01:48:27;;;;;;;11.00;7.30;;;4.20;91.00;;;;;;4925061;29;20038;-81
2022/04/04 01:50:52;;;;;;;13.43;8.60;;;4.10;91.00;;;;;;4911253;29;20032;-82
2022/04/04 01:53:29;;;;;;;12.83;8.17;;;4.20;90.80;;;;;;4923769;29;20028;-81
2022/04/04 01:56:03;;;;;;;14.67;8.80;;;4.30;90.30;;;;;;4926713;29;20031;-83
2022/04/04 01:58:28;;;;;;;13.70;8.60;;;4.30;89.70;;;;;;4924834;29;20503;-84
2022/04/04 02:00:56;;;;;;;11.53;7.33;;;4.40;89.60;;;;;;4921581;29;20020;-81
2022/04/04 02:03:24;;;;;;;10.17;7.47;;;4.50;88.90;;;;;;4922244;29;20020;-84
2022/04/04 02:05:49;;;;;;;13.57;7.93;;;4.60;88.30;;;;;;4907869;29;20111;-83
2022/04/04 02:08:15;;;;;;;11.17;7.47;;;4.70;87.70;;;;;;4926314;29;20597;-84
2022/04/04 02:10:41;;;;;;;16.07;8.67;;;4.90;87.50;;;;;;4905074;29;20027;-81
2022/04/04 02:13:07;;;;;;;11.63;7.67;;;5.00;86.40;;;;;;4908181;29;20016;-83
2022/04/04 02:15:32;;;;;;;14.67;9.03;;;5.00;86.70;;;;;;4926116;29;20036;-82
2022/04/04 02:17:58;;;;;;;11.87;8.10;;;5.10;86.20;;;;;;4920701;29;20028;-82
2022/04/04 02:20:24;;;;;;;11.33;8.23;;;5.10;86.40;;;;;;4938822;23;20790;-80
2022/04/04 02:22:50;;;;;;;15.80;8.87;;;5.10;87.40;;;;;;4916110;29;20047;-80
2022/04/04 02:25:16;;;;;;;12.67;8.33;;;5.00;87.10;;;;;;4935631;29;20039;-80
2022/04/04 02:27:41;;;;;;;11.70;8.03;;;5.00;87.10;;;;;;4937061;29;20020;-80
2022/04/04 02:30:07;;;;;;;11.53;8.30;;;5.00;87.50;;;;;;4919574;29;20083;-80
2022/04/04 02:32:33;;;;;;;12.00;7.80;;;5.00;87.80;;;;;;4925874;29;20030;-80
2022/04/04 02:34:59;;;;;;;12.43;8.20;;;5.10;87.50;;;;;;4912195;29;20040;-80
2022/04/04 02:37:25;;;;;;;10.07;8.33;;;5.00;88.00;;;;;;4928610;29;20027;-80
2022/04/04 02:39:50;;;;;;;9.43;7.67;;;5.10;88.20;;;;;;4925648;29;20035;-80
2022/04/04 02:42:16;;;;;;;11.43;8.00;;;5.10;88.00;;;;;;4929390;29;20047;-81
2022/04/04 02:44:42;;;;;;;10.67;7.23;;;5.10;88.20;;;;;;4928834;29;20441;-81
2022/04/04 02:47:09;;;;;;;14.03;9.27;;;5.20;87.90;;;;;;4908304;29;20040;-80
2022/04/04 02:49:35;;;;;;;13.23;7.53;;;5.20;88.00;;;;;;4929478;29;20019;-81
2022/04/04 02:52:01;;;;;;;18.47;8.33;;;5.30;87.60;;;;;;4934024;29;20078;-81
2022/04/04 02:54:26;;;;;;;14.40;8.03;;;5.30;87.20;;;;;;4925645;29;20036;-81
2022/04/04 02:56:52;;;;;;;10.40;7.10;;;5.40;86.80;;;;;;4929083;29;20034;-80
2022/04/04 02:59:18;;;;;;;11.37;8.23;;;5.40;86.70;;;;;;4928075;29;20026;-81
2022/04/04 03:01:48;;;;;;;15.33;8.17;;;5.50;86.60;;;;;;4925106;29;20102;-81
2022/04/04 03:04:18;;;;;;;10.83;7.90;;;5.50;86.40;;;;;;4925442;29;20079;-81
2022/04/04 03:06:44;;;;;;;9.40;7.43;;;5.50;86.00;;;;;;4927651;29;20020;-82
2022/04/04 03:09:11;;;;;;;9.53;6.90;;;5.60;86.20;;;;;;4929067;29;20016;-81
2022/04/04 03:11:37;;;;;;;10.30;7.17;;;5.60;85.60;;;;;;4925028;29;20024;-82
2022/04/04 03:14:03;;;;;;;11.20;6.53;;;5.60;85.80;;;;;;4928532;29;20039;-81
2022/04/04 03:16:29;;;;;;;10.27;6.57;;;5.60;85.70;;;;;;4928605;29;20157;-82
2022/04/04 03:18:55;;;;;;;9.97;7.40;;;5.70;85.70;;;;;;4908272;29;20020;-80
2022/04/04 04:20:54;;;;;;;5.70;4.40;;;7.00;78.70;;;;;;5645423;23;20259;-81
2022/04/04 04:23:20;;;;;;;7.07;3.97;;;7.10;78.60;;;;;;4916468;29;20032;-84
2022/04/04 04:25:47;;;;;;;6.90;4.30;;;7.10;79.10;;;;;;4916106;29;20024;-84
2022/04/04 04:28:12;;;;;;;4.67;3.63;;;7.20;78.20;;;;;;4916335;29;20149;-82
2022/04/04 04:30:38;;;;;;;5.70;4.00;;;7.10;78.50;;;;;;4899169;29;20024;-81
2022/04/04 04:33:04;;;;;;;6.35;4.55;;;7.20;78.20;;;;;;4906252;29;20039;-84
2022/04/04 04:35:31;;;;;;;6.47;3.80;;;7.20;77.90;;;;;;4903785;29;20408;-83
2022/04/04 04:37:56;;;;;;;5.70;3.58;;;7.20;77.50;;;;;;4908810;29;20032;-81
2022/04/04 04:40:23;;;;;;;5.90;3.67;;;7.30;77.40;;;;;;4904818;29;20493;-81
2022/04/04 04:42:51;;;;;;;7.68;4.07;;;7.30;76.90;;;;;;4904706;29;20494;-82
2022/04/04 04:45:17;;;;;;;5.23;3.97;;;7.30;77.00;;;;;;4899721;29;20389;-80
2022/04/04 04:47:43;;;;;;;4.97;3.60;;;7.30;77.40;;;;;;4905013;29;20033;-82
2022/04/04 04:50:10;;;;;;;7.20;4.17;;;7.30;76.80;;;;;;4905369;29;20599;-81
2022/04/04 04:52:36;;;;;;;2.85;2.55;;;7.30;76.80;;;;;;4908347;29;20036;-84
2022/04/04 04:55:04;;;;;;;3.38;3.08;;;7.30;75.50;;;;;;4904115;29;20033;-82
2022/04/04 04:57:30;;;;;;;6.93;3.13;;;7.40;75.60;;;;;;4904848;29;20165;-81
2022/04/04 04:59:56;;;;;;;7.78;2.95;;;7.40;77.80;;;;;;4908638;29;20051;-82
2022/04/04 05:02:23;;;;;;;4.30;3.47;;;7.30;78.50;;;;;;4904271;29;20394;-81
2022/04/04 05:04:48;;;;;;;5.82;2.95;;;7.20;81.30;;;;;;4888611;29;20041;-82
2022/04/04 05:07:15;;;;;;;8.43;3.50;;;7.00;82.00;;;;;;4908567;29;20035;-80
2022/04/04 05:09:41;;;;;;;8.47;3.37;;;6.90;83.50;;;;;;4903983;29;20076;-80
2022/04/04 05:12:07;;;;;;;4.87;2.83;;;6.80;85.40;;;;;;4905748;29;20397;-80
2022/04/04 05:14:33;;;;;;;3.67;2.50;;;6.70;85.90;;;;;;4908229;29;20588;-79
2022/04/04 05:16:59;;;;;;;5.83;3.23;;;6.60;84.70;;;;;;4903606;29;20112;-80
2022/04/04 05:19:25;;;;;;;4.33;2.17;;;6.60;82.20;;;;;;4905701;29;20031;-79
2022/04/04 05:21:51;;;;;;;4.27;2.23;;;6.70;81.70;;;;;;4908318;29;20036;-80
2022/04/04 05:24:18;;;;;;;4.73;2.33;;;6.70;81.10;;;;;;4901528;29;20012;-81
2022/04/04 05:26:44;;;;;;;3.60;2.27;;;6.80;81.00;;;;;;4888583;29;20047;-80
2022/04/04 05:29:10;;;;;;;4.60;2.37;;;6.90;80.50;;;;;;4903737;29;20032;-80
2022/04/04 05:31:36;;;;;;;2.83;2.13;;;6.90;79.10;;;;;;4908030;29;20031;-82
2022/04/04 05:34:04;;;;;;;4.67;2.07;;;7.00;79.20;;;;;;4904836;29;20028;-81
2022/04/04 05:36:31;;;;;;;6.60;2.60;;;6.90;81.80;;;;;;4903553;29;20039;-81
2022/04/04 05:38:58;;;;;;;5.80;2.20;;;7.00;81.60;;;;;;4907592;29;20020;-81
2022/04/04 05:41:24;;;;;;;8.20;2.40;;;7.00;85.00;;;;;;4902368;29;20028;-82
2022/04/04 05:43:50;;;;;;;7.13;2.37;;;7.00;86.00;;;;;;4887278;29;20111;-81
2022/04/04 05:46:17;;;;;;;4.93;2.67;;;7.20;86.80;;;;;;4907671;29;20035;-80
2022/04/04 05:48:43;;;;;;;8.35;2.40;;;7.30;88.00;;;;;;4903158;29;20625;-80
2022/04/04 05:51:09;;;;;;;5.87;2.50;;;7.30;88.80;;;;;;4903409;29;20021;-83
2022/04/04 05:53:36;;;;;;;7.27;2.90;;;7.30;90.20;;;;;;4907120;29;20537;-82
2022/04/04 05:56:02;;;;;;;4.27;2.27;;;7.30;90.50;;;;;;4902666;29;20040;-82
2022/04/04 05:58:28;;;;;;;3.93;2.00;;;7.20;91.50;;;;;;4904347;29;20081;-82
2022/04/04 06:00:54;;;;;;;3.33;2.30;;;7.20;91.10;;;;;;4906463;29;20516;-81
2022/04/04 06:03:20;;;;;;;3.97;2.60;;;7.20;91.60;;;;;;4900599;29;20491;-82
2022/04/04 06:05:49;;;;;;;2.80;2.47;;;7.20;91.20;;;;;;4904240;29;20039;-81
2022/04/04 06:08:16;;;;;;;5.53;2.13;;;7.10;91.10;;;;;;4902898;29;20028;-81
2022/04/04 06:10:45;;;;;;;7.27;2.97;;;7.10;91.10;;;;;;4907255;29;20016;-80
2022/04/04 06:13:15;;;;;;;7.90;2.30;;;7.10;91.90;;;;;;4903577;29;20021;-79
2022/04/04 06:15:42;;;;;;;9.60;3.47;;;7.00;92.50;;;;;;4903578;29;20037;-80
2022/04/04 06:18:08;;;;;;;7.07;2.93;;;7.00;93.30;;;;;;4907178;29;20023;-80
2022/04/04 07:22:39;;;;;;;12.93;3.88;;;7.60;98.50;;;;;;4940812;29;20051;-78
2022/04/04 07:25:09;;;;;;;6.00;2.83;;;7.70;98.50;;;;;;4937352;29;20026;-80
2022/04/04 07:27:42;;;;;;;8.32;2.92;;;7.80;98.40;;;;;;4933614;29;20047;-80
2022/04/04 07:30:09;;;;;;;8.65;3.17;;;7.80;98.50;;;;;;4937001;29;20026;-83
2022/04/04 07:32:37;;;;;;;11.23;3.22;;;7.80;98.90;;;;;;4936652;29;20019;-80
2022/04/04 07:35:04;;;;;;;10.05;3.05;;;7.80;98.50;;;;;;4919856;29;20034;-81
2022/04/04 07:37:30;;;;;;;7.05;2.60;;;7.80;98.30;;;;;;4936884;29;20395;-82
2022/04/04 07:39:56;;;;;;;8.05;3.10;;;7.80;98.40;;;;;;4936534;29;20111;-80
2022/04/04 07:42:21;;;;;;;12.30;3.90;;;7.80;98.80;;;;;;4943098;28;20027;-81
2022/04/04 07:44:47;;;;;;;14.43;4.18;;;7.80;99.90;;;;;;4934716;28;20722;-81
2022/04/04 07:47:13;;;;;;;21.15;3.78;;;7.90;99.80;;;;;;4950076;28;20030;-81
2022/04/04 07:49:38;;;;;;;20.45;4.15;;;7.90;99.90;;;;;;4943819;28;20016;-80
2022/04/04 07:52:05;;;;;;;9.00;4.05;;;7.90;99.90;;;;;;4922211;29;20052;-82
2022/04/04 07:54:30;;;;;;;10.07;3.90;;;7.90;99.90;;;;;;4936358;29;20019;-83
2022/04/04 07:56:56;;;;;;;10.50;3.42;;;7.80;99.90;;;;;;4936458;29;20016;-81
2022/04/04 07:59:23;;;;;;;13.80;3.55;;;7.80;99.90;;;;;;4936594;29;20103;-82
2022/04/04 08:01:49;;;;;;;9.17;2.90;;;7.80;99.90;;;;;;4941588;28;20027;-80
2022/04/04 08:04:14;;;;;;;11.60;3.37;;;7.80;99.90;;;;;;4936557;29;20023;-82
2022/04/04 08:06:40;;;;;;;9.85;3.35;;;7.80;99.90;;;;;;4935060;29;20544;-82
2022/04/04 08:09:06;;;;;;;10.15;3.03;;;7.80;99.90;;;;;;4948505;28;20117;-84
2022/04/04 08:11:31;;;;;;;13.40;3.05;;;7.80;99.90;;;;;;4953381;28;20042;-81
2022/04/04 08:13:57;;;;;;;6.53;3.40;;;7.80;99.90;;;;;;4938916;29;20089;-80
2022/04/04 08:16:25;;;;;;;20.33;4.25;;;7.80;99.90;;;;;;4936052;29;20126;-79
2022/04/04 08:18:54;;;;;;;11.13;3.20;;;7.80;99.90;;;;;;4943049;29;20048;-87
2022/04/04 09:20:53;;;;;;;17.20;3.78;;;8.20;99.90;;;;;;5785647;23;19934;-82
2022/04/04 09:23:19;;;;;;;9.38;2.83;;;8.20;99.90;;;;;;4933725;29;20039;-80
2022/04/04 09:25:45;;;;;;;11.20;3.38;;;8.20;99.90;;;;;;4933011;29;20035;-83
2022/04/04 09:28:15;;;;;;;8.77;3.08;;;8.20;99.90;;;;;;4933540;29;20066;-81
2022/04/04 09:30:42;;;;;;;12.45;3.67;;;8.30;99.90;;;;;;4933205;29;20043;-80
2022/04/04 09:33:33;;;;;;;9.50;3.08;;;8.30;99.90;;;;;;4933209;29;20060;-81
2022/04/04 09:35:59;;;;;;;5.70;3.03;;;8.40;99.90;;;;;;4933425;29;20039;-80
2022/04/04 09:38:25;;;;;;;8.80;2.58;;;8.50;99.90;;;;;;4933571;29;20036;-81
2022/04/04 09:40:50;;;;;;;7.85;2.40;;;8.60;99.90;;;;;;4933559;29;20030;-80
2022/04/04 09:43:16;;;;;;;6.05;2.50;;;8.70;99.90;;;;;;4933493;29;20031;-82
2022/04/04 09:45:44;;;;;;;8.65;2.97;;;8.70;99.90;;;;;;4933790;29;20067;-83
2022/04/04 09:48:11;;;;;;;11.38;3.47;;;8.80;99.90;;;;;;4933328;29;20499;-82
2022/04/04 09:50:45;;;;;;;10.80;2.55;;;8.70;99.90;;;;;;4933030;29;20424;-79
2022/04/04 09:53:29;;;;;;;10.90;3.20;;;8.80;99.90;;;;;;4933257;29;20122;-81
2022/04/04 09:55:57;;;;;;;10.32;3.67;;;8.80;99.90;;;;;;4933483;29;20031;-82
2022/04/04 09:58:28;;;;;;;10.52;3.28;;;8.90;99.90;;;;;;4933356;29;20035;-81
2022/04/04 10:00:56;;;;;;;8.95;3.20;;;8.90;99.90;;;;;;4927578;29;20028;-82
2022/04/04 10:03:23;;;;;;;13.05;2.65;;;8.90;99.90;;;;;;4915491;29;20038;-80
2022/04/04 10:06:01;;;;;;;12.25;4.07;;;9.00;99.90;;;;;;4933114;29;20031;-81
2022/04/04 10:08:28;;;;;;;9.13;2.88;;;9.00;99.90;;;;;;4915796;29;20071;-82
2022/04/04 10:10:54;;;;;;;12.13;4.13;;;9.00;99.90;;;;;;4933037;29;20020;-80
2022/04/04 10:13:20;;;;;;;15.82;3.92;;;9.00;99.90;;;;;;4932081;29;20032;-83
2022/04/04 10:15:48;;;;;;;12.35;3.45;;;9.00;99.90;;;;;;4932326;29;20083;-82
2022/04/04 10:18:15;;;;;;;18.15;3.88;;;9.10;99.90;;;;;;4932890;29;20030;-83
2022/04/04 11:22:55;;;;;;;12.48;3.90;;;10.80;99.40;;;;;;4921193;29;20111;-81
2022/04/04 11:25:22;;;;;;;9.15;4.10;;;10.80;98.50;;;;;;4935219;29;20026;-81
2022/04/04 11:27:48;;;;;;;8.57;3.63;;;10.80;98.80;;;;;;4903481;29;20028;-81
2022/04/04 11:30:20;;;;;;;6.00;3.65;;;10.70;99.30;;;;;;4918194;29;20389;-81
2022/04/04 11:32:49;;;;;;;10.25;4.60;;;10.80;98.60;;;;;;4928686;29;20460;-82
2022/04/04 11:35:22;;;;;;;12.13;4.25;;;10.90;99.50;;;;;;4901895;29;20044;-83
2022/04/04 11:38:01;;;;;;;9.40;3.88;;;11.00;98.80;;;;;;4918287;29;20091;-82
2022/04/04 11:40:33;;;;;;;10.57;4.05;;;10.90;98.50;;;;;;4918218;29;20028;-82
2022/04/04 11:43:10;;;;;;;9.05;4.18;;;10.90;98.40;;;;;;4918195;29;20496;-82
2022/04/04 11:45:39;;;;;;;10.77;3.83;;;11.10;98.10;;;;;;4917889;29;20028;-82
2022/04/04 11:48:17;;;;;;;7.80;3.90;;;11.10;97.80;;;;;;4924864;29;20013;-82
2022/04/04 11:50:44;;;;;;;9.48;4.40;;;11.00;98.00;;;;;;4918332;29;20034;-82
2022/04/04 11:53:14;;;;;;;10.90;4.50;;;11.10;98.70;;;;;;4920935;29;20024;-83
2022/04/04 11:55:43;;;;;;;8.63;4.70;;;11.00;98.40;;;;;;4917633;29;20032;-81
2022/04/04 11:58:12;;;;;;;15.35;5.82;;;10.90;98.20;;;;;;4916534;29;20027;-83
2022/04/04 12:00:54;;;;;;;12.30;4.68;;;11.00;99.00;;;;;;4917900;29;20032;-81
2022/04/04 12:03:21;;;;;;;16.52;5.63;;;10.90;99.10;;;;;;4917882;29;20023;-82
2022/04/04 12:05:50;;;;;;;8.88;5.10;;;10.90;99.20;;;;;;4900316;29;21004;-84
2022/04/04 12:08:18;;;;;;;13.48;5.50;;;11.00;98.40;;;;;;4900398;29;20072;-82
2022/04/04 12:10:47;;;;;;;11.57;5.55;;;11.20;99.00;;;;;;4900639;29;20028;-81
2022/04/04 12:13:20;;;;;;;10.38;5.97;;;11.30;98.30;;;;;;4917970;29;20107;-83
2022/04/04 12:15:47;;;;;;;9.65;5.78;;;11.30;98.30;;;;;;4900698;29;20056;-81
2022/04/04 12:18:20;;;;;;;11.75;6.20;;;11.50;98.90;;;;;;4900795;29;20469;-84
2022/04/04 12:20:48;;;;;;;10.63;6.05;;;11.80;96.80;;;;;;4946199;23;20051;-81
2022/04/04 12:26:11;;;;;;;10.15;5.60;;;11.80;97.40;;;;;;4899498;29;20377;-85
2022/04/04 12:28:39;;;;;;;16.80;6.07;;;11.80;98.10;;;;;;4899109;29;20502;-87
2022/04/04 12:31:17;;;;;;;11.85;5.90;;;11.80;97.20;;;;;;4881797;29;20489;-89
2022/04/04 12:33:43;;;;;;;13.63;6.03;;;11.90;96.80;;;;;;4898856;29;20048;-87
2022/04/04 12:36:10;;;;;;;12.35;6.30;;;12.00;96.70;;;;;;4904921;29;20072;-86
2022/04/04 12:38:40;;;;;;;14.57;5.55;;;12.20;95.80;;;;;;4898564;29;20028;-85
2022/04/04 12:41:13;;;;;;;13.90;7.40;;;12.20;95.00;;;;;;4898474;29;20470;-89
2022/04/04 12:43:42;;;;;;;14.93;5.40;;;12.30;95.60;;;;;;4898289;29;20028;-88
2022/04/04 12:46:23;;;;;;;11.43;4.82;;;12.10;95.70;;;;;;4881111;29;20400;-89
2022/04/04 12:48:49;;;;;;;16.10;5.65;;;12.10;95.60;;;;;;4898025;29;20385;-81
2022/04/04 12:51:31;;;;;;;15.90;4.97;;;12.10;95.10;;;;;;4900886;29;20477;-88
2022/04/04 12:54:00;;;;;;;16.02;4.43;;;12.10;95.00;;;;;;4897952;29;20109;-88
2022/04/04 12:56:28;;;;;;;14.65;4.57;;;12.10;95.50;;;;;;4897301;29;20036;-90
2022/04/04 12:59:05;;;;;;;15.07;5.03;;;12.10;95.50;;;;;;4897897;29;20520;-89
2022/04/04 13:01:31;;;;;;;24.10;5.63;;;12.40;95.30;;;;;;4897527;29;20008;-90
2022/04/04 13:03:57;;;;;;;11.23;4.60;;;12.90;95.00;;;;;;4897946;29;20450;-88
2022/04/04 13:06:28;;;;;;;12.65;5.03;;;13.60;93.00;;;;;;4897686;29;20107;-88
2022/04/04 13:08:55;;;;;;;11.57;4.50;;;14.00;91.40;;;;;;4901138;29;20031;-88
2022/04/04 13:11:22;;;;;;;8.30;3.97;;;14.10;91.30;;;;;;4897854;29;20469;-91
2022/04/04 13:14:05;;;;;;;13.07;5.05;;;14.20;90.30;;;;;;4881339;29;20080;-90
2022/04/04 13:17:06;;;;;;;13.85;4.53;;;14.10;91.00;;;;;;4897539;29;20036;-89
2022/04/04 13:19:32;;;;;;;11.43;3.78;;;14.30;90.30;;;;;;4865366;29;20040;-78
2022/04/04 13:21:59;;;;;;;9.73;4.07;;;13.90;90.50;;;;;;4935473;23;20047;-80
2022/04/04 13:24:24;;;;;;;15.15;4.50;;;13.70;90.90;;;;;;4897918;29;20427;-78
2022/04/04 13:26:50;;;;;;;14.60;4.47;;;13.50;91.70;;;;;;4897429;29;20155;-82
2022/04/04 13:29:17;;;;;;;12.98;4.13;;;13.40;91.90;;;;;;4909315;29;20385;-83
2022/04/04 13:31:44;;;;;;;12.60;4.45;;;13.40;92.30;;;;;;4901312;29;20034;-81
2022/04/04 13:34:11;;;;;;;16.55;4.20;;;13.70;91.90;;;;;;4897197;29;20024;-85
2022/04/04 13:36:37;;;;;;;14.02;4.43;;;13.90;90.90;;;;;;4914752;29;20044;-83
2022/04/04 13:39:05;;;;;;;12.90;3.53;;;14.00;90.50;;;;;;4914669;29;20020;-83
2022/04/04 13:41:37;;;;;;;13.43;3.35;;;13.90;90.60;;;;;;4915231;29;20038;-83
2022/04/04 13:44:03;;;;;;;;;;;13.70;90.30;;;;;;4915514;29;20032;-83
2022/04/04 13:46:30;;;;;;;10.90;3.33;;;13.60;91.50;;;;;;4913664;29;19929;-82
2022/04/04 13:48:57;;;;;;;13.35;3.05;;;13.40;91.40;;;;;;4914664;29;20025;-81
2022/04/04 13:51:25;;;;;;;9.60;3.53;;;13.10;92.30;;;;;;4897489;29;20036;-84
2022/04/04 13:53:55;;;;;;;12.70;3.47;;;13.00;92.30;;;;;;4915286;29;20024;-83
2022/04/04 13:56:23;;;;;;;22.23;3.60;;;12.90;93.10;;;;;;4908340;29;20405;-83
2022/04/04 13:58:50;;;;;;;11.13;3.35;;;12.90;93.90;;;;;;4913866;29;20076;-81
2022/04/04 14:01:18;;;;;;;13.55;3.17;;;12.90;93.90;;;;;;4913861;29;20024;-81
2022/04/04 14:03:45;;;;;;;13.75;3.40;;;13.00;92.90;;;;;;4914543;29;20024;-83
2022/04/04 14:06:14;;;;;;;20.98;3.47;;;13.10;93.20;;;;;;4912944;29;20104;-82
2022/04/04 14:08:40;;;;;;;18.10;3.30;;;13.20;92.50;;;;;;4913280;29;20025;-82
2022/04/04 14:11:08;;;;;;;18.60;4.28;;;13.10;92.00;;;;;;4914113;29;20099;-83
2022/04/04 14:13:39;;;;;;;13.40;3.08;;;13.10;92.70;;;;;;4914843;29;20051;-83
2022/04/04 14:16:06;;;;;;;16.27;4.18;;;13.40;92.10;;;;;;4897631;29;20032;-81
2022/04/04 14:18:32;;;;;;;11.82;2.60;;;13.60;91.10;;;;;;4897469;29;20060;-82
2022/04/04 14:20:58;;;;;;;13.23;3.00;;;14.00;90.60;;;;;;4933182;23;20041;-90
2022/04/04 14:23:27;;;;;;;15.18;2.50;;;14.90;90.70;;;;;;4940438;29;20116;-86
2022/04/04 14:25:54;;;;;;;12.57;2.70;;;15.60;86.00;;;;;;4940527;29;20483;-81
2022/04/04 14:28:20;;;;;;;16.85;2.75;;;15.80;82.30;;;;;;4939945;29;20032;-82
2022/04/04 14:30:49;;;;;;;16.50;2.88;;;15.40;82.50;;;;;;4936849;29;20361;-86
2022/04/04 14:33:15;;;;;;;14.70;3.83;;;14.40;87.20;;;;;;4933750;29;20032;-83
2022/04/04 14:35:41;;;;;;;17.05;3.00;;;13.90;90.00;;;;;;4933697;29;20477;-85
2022/04/04 14:38:07;;;;;;;18.23;3.00;;;13.40;91.20;;;;;;4933249;29;20102;-84
2022/04/04 14:40:33;;;;;;;16.17;3.80;;;13.30;92.30;;;;;;4933560;29;20035;-86
2022/04/04 14:42:58;;;;;;;11.23;2.78;;;13.00;92.90;;;;;;4933683;29;20031;-82
2022/04/04 14:45:25;;;;;;;16.40;2.95;;;13.00;92.40;;;;;;4933665;29;20023;-86
2022/04/04 14:47:51;;;;;;;15.65;3.10;;;12.80;93.00;;;;;;4933278;29;20032;-85
2022/04/04 14:50:17;;;;;;;14.88;2.90;;;12.60;93.40;;;;;;4933576;29;20747;-88
2022/04/04 14:52:44;;;;;;;29.45;5.22;;;12.30;94.30;;;;;;4933197;29;20019;-83
2022/04/04 14:55:13;;;;;;;20.30;3.63;;;12.10;94.90;;;;;;4933146;29;20032;-86
2022/04/04 14:57:41;;;;;;;15.15;3.13;;;12.00;95.50;;;;;;4933126;29;20087;-83
2022/04/04 15:00:07;;;;;;;21.10;3.85;;;11.90;96.20;;;;;;4933579;29;20027;-86
2022/04/04 15:02:36;;;;;;;18.13;3.45;;;12.00;96.10;;;;;;4933182;29;20036;-88
2022/04/04 15:05:06;;;;;;;17.67;3.30;;;12.20;96.00;;;;;;4933494;29;20091;-82
2022/04/04 15:07:32;;;;;;;18.23;3.05;;;12.70;94.80;;;;;;4932322;29;20499;-82
2022/04/04 15:09:58;;;;;;;12.32;3.20;;;13.30;93.00;;;;;;4933017;29;20031;-90
2022/04/04 15:12:25;;;;;;;15.07;3.70;;;13.70;92.40;;;;;;4933053;29;20481;-86
2022/04/04 15:14:51;;;;;;;13.10;3.28;;;13.90;91.30;;;;;;4927889;29;20028;-82
2022/04/04 15:17:17;;;;;;;21.52;3.60;;;14.00;91.00;;;;;;4928308;29;20091;-85
2022/04/04 15:19:42;;;;;;;13.45;2.83;;;13.80;91.00;;;;;;4928302;29;20035;-83
2022/04/04 16:22:17;;;;;;;14.45;3.88;;;13.70;92.90;;;;;;5300084;23;20080;-82
2022/04/04 16:24:43;;;;;;;17.73;3.00;;;13.70;92.90;;;;;;4889812;29;20462;-91
2022/04/04 16:27:09;;;;;;;20.90;4.15;;;13.90;92.20;;;;;;4897518;29;20028;-83
2022/04/04 16:29:34;;;;;;;15.20;3.72;;;14.10;91.80;;;;;;4888659;29;20108;-88
2022/04/04 16:32:00;;;;;;;14.52;3.35;;;14.40;91.20;;;;;;4891915;29;20427;-83
2022/04/04 16:34:26;;;;;;;19.13;4.75;;;14.60;91.50;;;;;;4869428;29;20021;-86
2022/04/04 16:36:52;;;;;;;13.05;3.30;;;14.70;90.00;;;;;;4884958;29;20075;-86
2022/04/04 16:39:18;;;;;;;19.83;3.35;;;14.70;89.50;;;;;;4883018;29;20028;-84
2022/04/04 16:41:45;;;;;;;17.35;3.00;;;14.80;90.50;;;;;;4883731;29;20035;-79
2022/04/04 16:44:11;;;;;;;15.07;3.92;;;14.70;90.50;;;;;;4881084;29;20103;-79
2022/04/04 16:46:36;;;;;;;21.85;4.10;;;14.70;90.40;;;;;;4880897;29;20103;-81
2022/04/04 16:49:04;;;;;;;15.55;3.38;;;14.80;90.40;;;;;;4863474;29;20042;-89
2022/04/04 16:51:31;;;;;;;20.27;3.78;;;14.70;89.70;;;;;;4894409;29;20020;-88
2022/04/04 16:53:57;;;;;;;17.55;3.45;;;14.60;90.50;;;;;;4854122;29;20033;-87
2022/04/04 16:56:27;;;;;;;19.83;4.03;;;14.20;91.20;;;;;;4886350;29;20374;-85
2022/04/04 16:58:54;;;;;;;18.02;3.55;;;14.20;91.40;;;;;;4883391;29;20056;-90
2022/04/04 17:01:19;;;;;;;18.17;3.08;;;14.10;91.60;;;;;;4885590;29;20032;-81
2022/04/04 17:03:45;;;;;;;23.67;4.10;;;14.20;91.20;;;;;;4902603;29;20434;-82
2022/04/04 17:06:11;;;;;;;24.48;5.60;;;14.30;91.50;;;;;;4898843;29;20039;-83
2022/04/04 17:08:36;;;;;;;15.85;4.03;;;14.30;91.20;;;;;;4896509;29;20059;-81
2022/04/04 17:11:02;;;;;;;12.80;3.55;;;14.10;91.10;;;;;;4896663;29;20121;-82
2022/04/04 17:13:28;;;;;;;21.52;3.85;;;13.80;92.00;;;;;;4898192;29;20028;-82
2022/04/04 17:15:54;;;;;;;14.25;4.38;;;13.60;92.60;;;;;;4898210;29;20036;-81
2022/04/04 17:18:19;;;;;;;25.75;5.60;;;13.40;93.60;;;;;;4897481;29;20029;-82
2022/04/04 17:23:24;;;;;;;23.73;5.50;;;13.10;93.80;;;;;;4936083;29;20059;-83
2022/04/04 17:25:51;;;;;;;19.73;4.43;;;12.90;94.60;;;;;;4921343;29;20083;-80
2022/04/04 17:28:17;;;;;;;15.25;3.92;;;12.70;94.80;;;;;;4941450;29;20047;-88
2022/04/04 17:30:43;;;;;;;21.02;4.35;;;12.50;95.60;;;;;;4940104;29;20392;-84
2022/04/04 17:33:09;;;;;;;19.48;4.47;;;12.40;96.10;;;;;;4958449;28;20042;-87
2022/04/04 17:35:36;;;;;;;25.35;4.90;;;12.30;96.30;;;;;;4936053;29;20043;-86
2022/04/04 17:38:03;;;;;;;18.83;4.25;;;12.20;96.90;;;;;;4960217;28;20023;-86
2022/04/04 17:40:29;;;;;;;17.83;5.07;;;12.10;97.10;;;;;;4953969;28;20607;-86
2022/04/04 17:42:54;;;;;;;13.52;4.22;;;12.10;97.00;;;;;;4953139;28;20034;-80
2022/04/04 17:45:21;;;;;;;18.45;5.15;;;12.00;97.20;;;;;;4953446;28;20019;-88
2022/04/04 17:47:47;;;;;;;19.85;4.35;;;12.00;97.60;;;;;;4945605;28;20114;-87
2022/04/04 17:50:15;;;;;;;22.40;5.45;;;12.00;97.50;;;;;;4943898;28;20031;-88
2022/04/04 17:52:44;;;;;;;14.10;4.93;;;11.90;97.70;;;;;;4950397;28;20042;-86
2022/04/04 17:55:10;;;;;;;19.77;5.32;;;11.90;97.90;;;;;;4930949;28;20520;-88
2022/04/04 17:57:36;;;;;;;17.83;5.32;;;11.90;97.80;;;;;;4925292;29;20122;-89